createdAt,value
2023-11-03T00:02:15.374Z,95289.27
2023-11-03T00:04:43.686Z,95296.56
2023-11-03T00:07:11.981Z,95294.84
2023-11-03T00:09:40.043Z,95291.02
2023-11-03T00:12:08.513Z,95284.36
2023-11-03T00:14:36.679Z,95282.64
2023-11-03T00:17:04.764Z,95283.95
2023-11-03T00:19:32.898Z,95286.84
2023-11-03T00:22:01.207Z,95289.48
2023-11-03T00:24:29.406Z,95290.61
2023-11-03T00:26:57.546Z,95290.04
2023-11-03T00:29:25.925Z,95285.49
2023-11-03T00:31:54.032Z,95280.05
2023-11-03T00:34:22.142Z,95276.45
2023-11-03T00:36:50.581Z,95275.59
2023-11-03T00:39:20.126Z,95275.91
2023-11-03T00:41:49.588Z,95274.21
2023-11-03T00:44:18.946Z,95270.71
2023-11-03T00:46:47.611Z,95265.48
2023-11-03T00:49:15.908Z,95257.75
2023-11-03T00:51:44.179Z,95255.36
2023-11-03T00:54:12.303Z,95254.20
2023-11-03T00:56:40.779Z,95250.77
2023-11-03T00:59:09.190Z,95249.48
2023-11-03T01:01:37.468Z,95263.13
2023-11-03T01:04:06.619Z,95278.27
2023-11-03T01:06:35.338Z,95288.93
2023-11-03T01:09:04.170Z,95282.08
2023-11-03T01:11:32.310Z,95278.05
2023-11-03T01:14:00.837Z,95278.49
2023-11-03T01:16:31.712Z,95283.15
2023-11-03T01:19:02.066Z,95283.04
2023-11-03T01:21:30.204Z,95285.09
2023-11-03T01:23:58.375Z,95280.86
2023-11-03T01:26:26.572Z,95272.88
2023-11-03T01:28:54.966Z,95270.55
2023-11-03T01:31:23.202Z,95276.23
2023-11-03T01:33:51.563Z,95275.46
2023-11-03T01:36:19.697Z,95270.88
2023-11-03T01:38:49.738Z,95266.39
2023-11-03T01:41:18.447Z,95264.03
2023-11-03T01:44:10.851Z,95260.92
2023-11-03T01:46:40.018Z,95255.49
2023-11-03T01:49:09.602Z,95253.27
2023-11-03T01:51:38.345Z,95244.03
2023-11-03T01:54:06.921Z,95237.25
2023-11-03T01:56:36.261Z,95234.45
2023-11-03T01:59:07.015Z,95230.95
2023-11-03T02:01:36.881Z,95221.14
2023-11-03T02:04:05.716Z,95218.86
2023-11-03T02:06:34.286Z,95209.11
2023-11-03T02:09:02.393Z,95205.89
2023-11-03T02:11:31.288Z,95197.17
2023-11-03T02:14:00.358Z,95194.08
2023-11-03T02:16:29.998Z,95188.30
2023-11-03T02:18:58.053Z,95182.25
2023-11-03T02:21:27.197Z,95179.01
2023-11-03T02:23:55.332Z,95173.52
2023-11-03T02:26:23.844Z,95170.48
2023-11-03T02:28:51.940Z,95164.02
2023-11-03T02:31:19.905Z,95157.67
2023-11-03T02:33:48.121Z,95149.14
2023-11-03T02:36:19.436Z,95139.38
2023-11-03T02:38:47.577Z,95138.80
2023-11-03T02:41:15.774Z,95142.14
2023-11-03T02:43:43.897Z,95137.39
2023-11-03T02:46:11.894Z,95136.59
2023-11-03T02:48:40.083Z,95143.15
2023-11-03T02:51:08.132Z,95146.05
2023-11-03T02:53:36.305Z,95149.45
2023-11-03T02:56:04.870Z,95138.89
2023-11-03T02:58:38.298Z,95143.61
2023-11-03T03:01:09.491Z,95140.78
2023-11-03T03:03:37.757Z,95138.84
2023-11-03T03:06:06.236Z,95135.75
2023-11-03T03:08:34.658Z,95131.98
2023-11-03T03:11:03.031Z,95121.07
2023-11-03T03:13:31.494Z,95119.04
2023-11-03T03:15:59.602Z,95109.25
2023-11-03T03:18:28.594Z,95119.38
2023-11-03T03:20:56.561Z,95128.02
2023-11-03T03:23:24.719Z,95132.65
2023-11-03T03:25:53.021Z,95128.62
2023-11-03T03:28:21.295Z,95129.11
2023-11-03T03:30:49.452Z,95135.24
2023-11-03T03:33:17.694Z,95130.90
2023-11-03T03:35:45.925Z,95129.83
2023-11-03T03:38:14.273Z,95125.52
2023-11-03T03:40:42.994Z,95131.96
2023-11-03T03:43:11.494Z,95135.48
2023-11-03T03:45:39.751Z,95123.32
2023-11-03T03:48:07.928Z,95112.27
2023-11-03T03:50:36.110Z,95108.31
2023-11-03T03:53:04.291Z,95100.77
2023-11-03T03:55:32.546Z,95102.06
2023-11-03T03:58:00.592Z,95104.70
2023-11-03T04:00:28.742Z,95110.54
2023-11-03T04:02:57.053Z,95113.52
2023-11-03T04:05:26.632Z,95111.07
2023-11-03T04:07:54.810Z,95099.45
2023-11-03T04:10:22.942Z,95085.16
2023-11-03T04:12:51.096Z,95080.85
2023-11-03T04:15:19.490Z,95073.11
2023-11-03T04:17:47.944Z,95066.38
2023-11-03T04:20:15.995Z,95053.81
2023-11-03T04:22:44.042Z,95046.88
2023-11-03T04:25:12.505Z,95038.81
2023-11-03T04:27:40.672Z,95028.48
2023-11-03T04:30:09.341Z,95011.51
2023-11-03T04:32:37.462Z,95005.66
2023-11-03T04:35:06.319Z,95005.00
2023-11-03T04:37:34.302Z,95010.88
2023-11-03T04:40:03.930Z,95018.45
2023-11-03T04:42:32.250Z,95014.02
2023-11-03T04:45:00.971Z,95008.72
2023-11-03T04:47:29.149Z,95009.97
2023-11-03T04:49:57.683Z,95014.89
2023-11-03T04:52:25.957Z,95016.87
2023-11-03T04:54:53.916Z,95015.17
2023-11-03T04:57:23.696Z,95010.33
2023-11-03T04:59:51.826Z,95006.81
2023-11-03T05:02:20.324Z,94998.59
2023-11-03T05:04:48.411Z,94992.80
2023-11-03T05:07:16.556Z,94992.81
2023-11-03T05:09:44.925Z,94988.05
2023-11-03T05:12:13.340Z,94991.52
2023-11-03T05:14:41.407Z,94989.59
2023-11-03T05:17:09.763Z,94982.10
2023-11-03T05:19:38.030Z,94973.17
2023-11-03T05:22:06.393Z,94966.82
2023-11-03T05:24:34.480Z,94959.83
2023-11-03T05:27:02.650Z,94956.93
2023-11-03T05:29:30.894Z,94952.06
2023-11-03T05:31:58.932Z,94955.75
2023-11-03T05:34:27.337Z,94961.95
2023-11-03T05:36:55.651Z,94962.11
2023-11-03T05:39:24.166Z,94953.64
2023-11-03T05:41:52.247Z,94944.48
2023-11-03T05:44:20.460Z,94940.92
2023-11-03T05:46:48.448Z,94950.08
2023-11-03T05:49:16.707Z,94950.42
2023-11-03T05:51:44.988Z,94942.75
2023-11-03T05:54:13.248Z,94941.52
2023-11-03T05:56:41.288Z,94941.75
2023-11-03T05:59:09.837Z,94937.02
2023-11-03T06:01:38.365Z,94919.83
2023-11-03T06:04:06.502Z,94916.86
2023-11-03T06:06:34.673Z,94913.02
2023-11-03T06:09:03.059Z,94925.38
2023-11-03T06:11:31.213Z,94923.02
2023-11-03T06:13:59.396Z,94926.17
2023-11-03T06:16:27.462Z,94925.88
2023-11-03T06:18:55.643Z,94919.88
2023-11-03T06:21:24.148Z,94915.95
2023-11-03T06:23:52.175Z,94917.02
2023-11-03T06:26:20.298Z,94913.84
2023-11-03T06:28:48.370Z,94916.78
2023-11-03T06:31:18.443Z,94912.40
2023-11-03T06:33:46.870Z,94899.41
2023-11-03T06:36:16.475Z,94895.40
2023-11-03T06:38:44.507Z,94904.02
2023-11-03T06:41:12.655Z,94905.24
2023-11-03T06:43:42.316Z,94901.78
2023-11-03T06:46:10.575Z,94901.85
2023-11-03T06:48:38.692Z,94901.97
2023-11-03T06:51:10.940Z,94911.11
2023-11-03T06:53:39.057Z,94908.66
2023-11-03T06:56:08.584Z,94904.03
2023-11-03T06:58:36.724Z,94902.33
2023-11-03T07:01:05.887Z,94905.89
2023-11-03T07:03:35.015Z,94893.66
2023-11-03T07:06:05.331Z,94889.96
2023-11-03T07:08:34.197Z,94896.71
2023-11-03T07:11:02.775Z,94898.76
2023-11-03T07:13:31.132Z,94896.08
2023-11-03T07:15:59.414Z,94893.23
2023-11-03T07:18:27.993Z,94896.29
2023-11-03T07:20:57.391Z,94902.20
2023-11-03T07:23:25.581Z,94911.52
2023-11-03T07:25:57.516Z,94909.81
2023-11-03T07:28:25.647Z,94914.02
2023-11-03T07:30:54.397Z,94922.10
2023-11-03T07:33:23.184Z,94924.30
2023-11-03T07:35:52.067Z,94902.48
2023-11-03T07:38:22.341Z,94889.78
2023-11-03T07:40:51.178Z,94878.35
2023-11-03T07:43:19.407Z,94884.19
2023-11-03T07:45:47.769Z,94894.70
2023-11-03T07:48:16.514Z,94893.48
2023-11-03T07:50:45.347Z,94889.62
2023-11-03T07:53:13.669Z,94876.13
2023-11-03T07:55:41.660Z,94875.82
2023-11-03T07:58:10.315Z,94875.84
2023-11-03T08:00:38.427Z,94880.19
2023-11-03T08:03:08.910Z,94885.38
2023-11-03T08:05:39.437Z,94879.76
2023-11-03T08:08:08.325Z,94876.92
2023-11-03T08:10:36.373Z,94878.64
2023-11-03T08:13:06.287Z,94878.24
2023-11-03T08:15:34.483Z,94873.98
2023-11-03T08:18:03.199Z,94854.36
2023-11-03T08:20:31.225Z,94856.47
2023-11-03T08:22:59.806Z,94846.55
2023-11-03T08:25:28.658Z,94848.83
2023-11-03T08:27:56.994Z,94854.93
2023-11-03T08:30:25.429Z,94865.51
2023-11-03T08:32:53.691Z,94868.73
2023-11-03T08:35:22.433Z,94869.50
2023-11-03T08:37:53.777Z,94871.34
2023-11-03T08:40:22.677Z,94875.26
2023-11-03T08:42:51.652Z,94872.63
2023-11-03T08:45:24.203Z,94865.59
2023-11-03T08:47:53.070Z,94870.26
2023-11-03T08:50:22.710Z,94869.52
2023-11-03T08:52:50.841Z,94867.58
2023-11-03T08:55:19.085Z,94867.30
2023-11-03T08:57:48.169Z,94870.02
2023-11-03T09:00:21.070Z,94872.29
2023-11-03T09:02:50.244Z,94869.02
2023-11-03T09:05:18.395Z,94872.21
2023-11-03T09:07:47.229Z,94870.61
2023-11-03T09:10:16.778Z,94868.66
2023-11-03T09:12:45.184Z,94869.71
2023-11-03T09:15:13.620Z,94862.67
2023-11-03T09:17:45.763Z,94846.97
2023-11-03T09:20:19.059Z,94834.17
2023-11-03T09:22:49.571Z,94844.17
2023-11-03T09:25:20.926Z,94844.41
2023-11-03T09:27:49.186Z,94832.13
2023-11-03T09:30:17.946Z,94816.41
2023-11-03T09:32:49.182Z,94804.36
2023-11-03T09:35:17.667Z,94798.41
2023-11-03T09:37:46.653Z,94792.26
2023-11-03T09:40:18.743Z,94779.50
2023-11-03T09:42:48.445Z,94792.70
2023-11-03T09:45:20.701Z,94787.05
2023-11-03T09:47:50.377Z,94780.05
2023-11-03T09:50:18.407Z,94774.24
2023-11-03T09:52:49.466Z,94789.33
2023-11-03T09:55:22.992Z,94791.99
2023-11-03T09:57:56.504Z,94779.53
2023-11-03T10:00:24.568Z,94768.35
2023-11-03T10:02:52.704Z,94762.52
2023-11-03T10:05:22.753Z,94761.50
2023-11-03T10:07:56.229Z,94758.44
2023-11-03T10:10:26.553Z,94743.76
2023-11-03T10:12:54.837Z,94743.93
2023-11-03T10:15:23.050Z,94741.05
2023-11-03T10:17:51.061Z,94740.52
2023-11-03T10:20:24.339Z,94726.02
2023-11-03T10:22:52.743Z,94715.27
2023-11-03T10:25:21.184Z,94702.21
2023-11-03T10:27:55.498Z,94692.88
2023-11-03T10:30:26.713Z,94686.73
2023-11-03T10:32:57.204Z,94678.24
2023-11-03T10:35:25.890Z,94679.64
2023-11-03T10:37:55.571Z,94691.05
2023-11-03T10:40:25.983Z,94691.09
2023-11-03T10:42:54.267Z,94690.02
2023-11-03T10:45:22.903Z,94687.02
2023-11-03T10:48:28.986Z,94690.58
2023-11-03T10:51:09.268Z,94682.04
2023-11-03T10:53:41.896Z,94677.58
2023-11-03T10:56:26.826Z,94675.88
2023-11-03T10:58:59.451Z,94663.42
2023-11-03T11:01:30.761Z,94656.23
2023-11-03T11:04:03.809Z,94641.95
2023-11-03T11:06:52.519Z,94632.96
2023-11-03T11:09:34.214Z,94638.33
2023-11-03T11:12:03.908Z,94651.62
2023-11-03T11:14:39.591Z,94651.59
2023-11-03T11:17:18.597Z,94653.98
2023-11-03T11:19:48.019Z,94650.67
2023-11-03T11:22:19.286Z,94648.35
2023-11-03T11:24:49.049Z,94643.21
2023-11-03T11:27:20.479Z,94642.02
2023-11-03T11:29:50.640Z,94641.38
2023-11-03T11:32:19.668Z,94639.53
2023-11-03T11:34:47.834Z,94629.88
2023-11-03T11:37:29.654Z,94626.08
2023-11-03T11:40:02.153Z,94620.94
2023-11-03T11:42:37.378Z,94616.80
2023-11-03T11:45:06.808Z,94608.98
2023-11-03T11:47:36.849Z,94609.27
2023-11-03T11:50:06.615Z,94607.28
2023-11-03T11:52:37.512Z,94599.84
2023-11-03T11:55:06.026Z,94600.91
2023-11-03T11:57:35.287Z,94593.72
2023-11-03T12:00:05.877Z,94587.78
2023-11-03T12:02:39.268Z,94592.30
2023-11-03T12:05:07.660Z,94592.70
2023-11-03T12:07:38.493Z,94583.50
2023-11-03T12:10:07.349Z,94576.02
2023-11-03T12:12:35.478Z,94571.85
2023-11-03T12:15:05.621Z,94575.40
2023-11-03T12:17:35.172Z,94574.52
2023-11-03T12:20:03.977Z,94581.26
2023-11-03T12:22:33.185Z,94587.98
2023-11-03T12:25:02.447Z,94583.23
2023-11-03T12:27:30.744Z,94575.45
2023-11-03T12:30:04.216Z,94570.04
2023-11-03T12:32:32.599Z,94558.73
2023-11-03T12:35:02.978Z,94547.73
2023-11-03T12:37:31.220Z,94548.66
2023-11-03T12:39:59.497Z,94546.84
2023-11-03T12:42:29.177Z,94542.27
2023-11-03T12:45:00.778Z,94545.96
2023-11-03T12:47:46.528Z,94534.64
2023-11-03T12:50:22.225Z,94541.59
2023-11-03T12:52:56.760Z,94536.42
2023-11-03T12:55:29.302Z,94547.25
2023-11-03T12:57:58.343Z,94534.27
2023-11-03T13:00:29.996Z,94524.86
2023-11-03T13:02:58.097Z,94521.14
2023-11-03T13:05:26.948Z,94510.16
2023-11-03T13:08:01.178Z,94488.92
2023-11-03T13:10:32.377Z,94480.56
2023-11-03T13:13:01.718Z,94483.23
2023-11-03T13:15:30.269Z,94484.52
2023-11-03T13:17:58.476Z,94491.60
2023-11-03T13:20:26.656Z,94499.65
2023-11-03T13:23:02.173Z,94499.27
2023-11-03T13:25:31.108Z,94495.67
2023-11-03T13:28:00.363Z,94486.09
2023-11-03T13:30:28.770Z,94485.77
2023-11-03T13:32:57.439Z,94488.80
2023-11-03T13:35:25.750Z,94483.95
2023-11-03T13:37:54.016Z,94477.77
2023-11-03T13:40:22.640Z,94478.55
2023-11-03T13:42:52.666Z,94477.27
2023-11-03T13:45:21.006Z,94473.15
2023-11-03T13:47:49.693Z,94459.17
2023-11-03T13:50:22.190Z,94459.88
2023-11-03T13:52:51.897Z,94460.80
2023-11-03T13:55:23.750Z,94473.39
2023-11-03T13:57:53.216Z,94481.13
2023-11-03T14:00:23.999Z,94501.88
2023-11-03T14:02:53.635Z,94507.63
2023-11-03T14:05:22.275Z,94494.33
2023-11-03T14:07:51.951Z,94470.95
2023-11-03T14:10:21.921Z,94452.73
2023-11-03T14:12:51.813Z,94429.77
2023-11-03T14:15:20.024Z,94420.15
2023-11-03T14:17:48.351Z,94420.58
2023-11-03T14:20:17.379Z,94447.04
2023-11-03T14:22:45.948Z,94467.04
2023-11-03T14:25:14.814Z,94490.73
2023-11-03T14:27:43.734Z,94481.20
2023-11-03T14:30:15.311Z,94498.41
2023-11-03T14:32:43.541Z,94499.36
2023-11-03T14:35:13.661Z,94501.42
2023-11-03T14:37:43.355Z,94509.60
2023-11-03T14:40:17.793Z,94512.44
2023-11-03T14:42:47.489Z,94516.63
2023-11-03T14:45:17.935Z,94526.10
2023-11-03T14:47:49.324Z,94535.00
2023-11-03T14:50:17.569Z,94551.52
2023-11-03T14:52:47.771Z,94564.43
2023-11-03T14:55:18.717Z,94589.38
2023-11-03T14:57:47.326Z,94606.04
2023-11-03T15:00:18.191Z,94618.10
2023-11-03T15:02:49.532Z,94620.69
2023-11-03T15:05:18.655Z,94617.42
2023-11-03T15:07:46.974Z,94622.21
2023-11-03T15:10:15.275Z,94630.09
2023-11-03T15:12:46.624Z,94627.98
2023-11-03T15:15:15.376Z,94627.67
2023-11-03T15:17:47.461Z,94626.98
2023-11-03T15:20:16.102Z,94620.39
2023-11-03T15:22:46.078Z,94609.38
2023-11-03T15:25:17.168Z,94616.09
2023-11-03T15:27:50.158Z,94626.65
2023-11-03T15:30:19.064Z,94644.48
2023-11-03T15:32:47.412Z,94647.92
2023-11-03T15:35:16.041Z,94646.37
2023-11-03T15:37:45.007Z,94654.81
2023-11-03T15:40:20.611Z,94648.80
2023-11-03T15:42:49.423Z,94640.97
2023-11-03T15:45:18.940Z,94623.29
2023-11-03T15:47:49.156Z,94615.03
2023-11-03T15:50:21.411Z,94608.77
2023-11-03T15:52:51.692Z,94606.96
2023-11-03T15:55:20.471Z,94602.83
2023-11-03T15:57:51.547Z,94597.79
2023-11-03T16:00:28.858Z,94589.73
2023-11-03T16:02:58.178Z,94601.53
2023-11-03T16:05:27.080Z,94617.58
2023-11-03T16:07:55.158Z,94639.90
2023-11-03T16:10:23.377Z,94645.55
2023-11-03T16:12:51.472Z,94655.62
2023-11-03T16:15:19.719Z,94652.94
2023-11-03T16:17:48.332Z,94661.32
2023-11-03T16:20:18.947Z,94635.29
2023-11-03T16:22:47.613Z,94598.90
2023-11-03T16:25:16.159Z,94583.37
2023-11-03T16:27:45.507Z,94598.38
2023-11-03T16:30:18.031Z,94612.02
2023-11-03T16:32:48.516Z,94630.83
2023-11-03T16:35:16.758Z,94647.86
2023-11-03T16:37:44.792Z,94655.17
2023-11-03T16:40:13.602Z,94667.20
2023-11-03T16:42:42.904Z,94681.96
2023-11-03T16:45:11.891Z,94695.12
2023-11-03T16:47:40.916Z,94710.67
2023-11-03T16:50:10.817Z,94723.62
2023-11-03T16:52:43.849Z,94736.95
2023-11-03T16:55:14.725Z,94755.19
2023-11-03T16:57:44.425Z,94775.84
2023-11-03T17:00:14.682Z,94790.02
2023-11-03T17:02:46.051Z,94796.80
2023-11-03T17:05:16.932Z,94802.14
2023-11-03T17:07:46.373Z,94792.38
2023-11-03T17:10:16.790Z,94793.89
2023-11-03T17:12:56.788Z,94797.82
2023-11-03T17:15:30.566Z,94791.91
2023-11-03T17:17:59.885Z,94783.80
2023-11-03T17:20:28.399Z,94787.89
2023-11-03T17:22:56.538Z,94785.81
2023-11-03T17:25:26.393Z,94781.94
2023-11-03T17:27:55.315Z,94786.71
2023-11-03T17:30:24.324Z,94793.38
2023-11-03T17:32:54.560Z,94793.78
2023-11-03T17:35:28.485Z,94796.97
2023-11-03T17:38:08.948Z,94782.50
2023-11-03T17:40:38.383Z,94763.30
2023-11-03T17:43:06.879Z,94764.83
2023-11-03T17:45:35.284Z,94767.23
2023-11-03T17:48:06.476Z,94767.71
2023-11-03T17:50:34.579Z,94774.41
2023-11-03T17:53:05.019Z,94775.71
2023-11-03T17:55:33.355Z,94777.25
2023-11-03T17:58:01.541Z,94786.63
2023-11-03T18:00:30.003Z,94786.47
2023-11-03T18:03:06.934Z,94791.45
2023-11-03T18:05:35.549Z,94799.35
2023-11-03T18:08:04.304Z,94803.77
2023-11-03T18:10:32.483Z,94811.48
2023-11-03T18:13:00.931Z,94826.47
2023-11-03T18:15:31.096Z,94845.27
2023-11-03T18:17:59.471Z,94859.13
2023-11-03T18:20:28.641Z,94870.81
2023-11-03T18:22:56.887Z,94882.69
2023-11-03T18:25:27.383Z,94899.91
2023-11-03T18:28:00.958Z,94907.04
2023-11-03T18:30:31.604Z,94909.10
2023-11-03T18:33:01.112Z,94910.48
2023-11-03T18:35:33.735Z,94908.15
2023-11-03T18:38:02.284Z,94903.33
2023-11-03T18:40:34.680Z,94908.14
2023-11-03T18:43:03.225Z,94904.80
2023-11-03T18:45:32.540Z,94898.48
2023-11-03T18:48:06.543Z,94903.58
2023-11-03T18:55:12.623Z,94887.45
2023-11-03T18:57:10.942Z,94881.12
2023-11-03T19:04:46.726Z,94886.05
2023-11-03T19:07:30.221Z,94886.33
2023-11-03T19:09:40.897Z,94888.61
2023-11-03T19:12:11.525Z,94890.25
2023-11-03T19:14:41.595Z,94891.67
2023-11-03T19:17:12.804Z,94895.63
2023-11-03T19:19:42.207Z,94902.10
2023-11-03T19:22:12.123Z,94916.51
2023-11-03T19:24:43.376Z,94927.52
2023-11-03T19:27:14.390Z,94934.41
2023-11-03T19:29:45.452Z,94937.09
2023-11-03T19:32:15.816Z,94936.38
2023-11-03T19:34:45.049Z,94932.09
2023-11-03T19:37:17.078Z,94920.58
2023-11-03T19:39:45.280Z,94909.16
2023-11-03T19:42:15.417Z,94905.96
2023-11-03T19:44:43.956Z,94908.62
2023-11-03T19:47:15.365Z,94919.47
2023-11-03T19:49:43.932Z,94923.75
2023-11-03T19:52:16.055Z,94926.31
2023-11-03T19:54:44.178Z,94937.40
2023-11-03T19:57:12.745Z,94937.77
2023-11-03T19:59:42.263Z,94936.50
2023-11-03T20:02:10.451Z,94938.55
2023-11-03T20:04:38.704Z,94941.91
2023-11-03T20:07:10.003Z,94941.64
2023-11-03T20:09:40.243Z,94933.61
2023-11-03T20:12:10.721Z,94942.16
2023-11-03T20:14:42.692Z,94944.71
2023-11-03T20:17:12.814Z,94948.28
2023-11-03T20:19:44.081Z,94945.20
2023-11-03T20:22:19.953Z,94947.05
2023-11-03T20:24:53.208Z,94947.87
2023-11-03T20:27:21.399Z,94961.05
2023-11-03T20:29:49.576Z,94965.02
2023-11-03T20:32:18.138Z,94967.09
2023-11-03T20:34:46.211Z,94963.02
2023-11-03T20:37:18.700Z,94975.44
2023-11-03T20:39:47.175Z,94985.15
2023-11-03T20:42:15.447Z,94980.27
2023-11-03T20:44:43.761Z,94977.70
2023-11-03T20:47:11.887Z,94982.66
2023-11-03T20:49:42.348Z,94988.39
2023-11-03T20:52:16.455Z,95002.48
2023-11-03T20:54:44.551Z,95007.38
2023-11-03T20:57:14.780Z,95001.63
2023-11-03T20:59:42.743Z,95001.69
2023-11-03T21:02:10.816Z,95005.33
2023-11-03T21:04:40.473Z,94999.27
2023-11-03T21:07:08.862Z,94985.27
2023-11-03T21:09:39.475Z,94977.96
2023-11-03T21:12:08.880Z,94970.96
2023-11-03T21:14:36.924Z,94965.52
2023-11-03T21:17:05.686Z,94957.86
2023-11-03T21:19:35.996Z,94948.73
2023-11-03T21:22:07.570Z,94949.39
2023-11-03T21:24:35.905Z,94959.29
2023-11-03T21:27:04.597Z,94964.38
2023-11-03T21:29:32.670Z,94960.30
2023-11-03T21:32:00.884Z,94956.54
2023-11-03T21:34:31.185Z,94947.35
2023-11-03T21:37:01.600Z,94942.42
2023-11-03T21:39:29.781Z,94949.56
2023-11-03T21:41:58.180Z,94944.06
2023-11-03T21:44:26.228Z,94943.31
2023-11-03T21:46:54.392Z,94942.73
2023-11-03T21:49:22.541Z,94947.73
2023-11-03T21:51:50.739Z,94952.64
2023-11-03T21:54:19.690Z,94947.50
2023-11-03T21:56:48.178Z,94947.36
2023-11-03T21:59:16.484Z,94952.36
2023-11-03T22:01:45.167Z,94953.00
2023-11-03T22:04:13.453Z,94955.27
2023-11-03T22:06:41.753Z,94958.33
2023-11-03T22:09:10.409Z,94952.11
2023-11-03T22:11:38.712Z,94945.80
2023-11-03T22:14:06.901Z,94936.23
2023-11-03T22:16:35.289Z,94929.66
2023-11-03T22:19:03.488Z,94938.65
2023-11-03T22:21:31.900Z,94949.23
2023-11-03T22:24:03.240Z,94950.14
2023-11-03T22:26:39.415Z,94957.41
2023-11-03T22:29:11.951Z,94960.11
2023-11-03T22:31:44.704Z,94964.96
2023-11-03T22:34:13.259Z,94978.48
2023-11-03T22:36:41.827Z,94985.30
2023-11-03T22:39:12.773Z,94981.89
2023-11-03T22:41:40.866Z,94972.90
2023-11-03T22:44:09.112Z,94966.01
2023-11-03T22:46:37.259Z,94961.61
2023-11-03T22:49:06.298Z,94948.29
2023-11-03T22:51:34.733Z,94949.48
2023-11-03T22:54:02.920Z,94962.78
2023-11-03T22:56:32.252Z,94970.13
2023-11-03T22:59:02.261Z,94972.59
2023-11-03T23:01:30.494Z,94973.55
2023-11-03T23:03:58.716Z,94983.95
2023-11-03T23:06:27.077Z,94991.09
2023-11-03T23:08:55.123Z,94994.84
2023-11-03T23:11:23.568Z,94991.02
2023-11-03T23:13:51.669Z,94989.45
2023-11-03T23:16:19.949Z,94987.66
2023-11-03T23:18:48.020Z,94979.72
2023-11-03T23:21:17.237Z,94986.38
2023-11-03T23:23:48.178Z,94984.85
2023-11-03T23:26:16.433Z,94977.88
2023-11-03T23:28:44.826Z,94975.15
2023-11-03T23:31:13.078Z,94970.83
2023-11-03T23:33:41.438Z,94964.52
2023-11-03T23:36:09.924Z,94964.04
2023-11-03T23:38:38.095Z,94961.44
2023-11-03T23:41:06.345Z,94962.03
2023-11-03T23:43:34.449Z,94975.18
2023-11-03T23:46:04.551Z,94981.91
2023-11-03T23:48:33.502Z,94978.23
2023-11-03T23:51:01.628Z,94973.70
2023-11-03T23:53:29.914Z,94966.77
2023-11-03T23:55:58.197Z,94965.80
2023-11-03T23:58:26.296Z,94957.65
